sensor_id;sensor_type;location;lat;lon;timestamp;temperature;humidity
14378;DHT22;7272;53.668;9.578;2023-07-16T00:00:15;20.10;99.90
14378;DHT22;7272;53.668;9.578;2023-07-16T00:03:23;20.00;99.90
14378;DHT22;7272;53.668;9.578;2023-07-16T00:06:24;20.10;99.90
14378;DHT22;7272;53.668;9.578;2023-07-16T00:09:26;20.10;99.90
14378;DHT22;7272;53.668;9.578;2023-07-16T00:12:27;20.10;99.90
14378;DHT22;7272;53.668;9.578;2023-07-16T00:15:28;20.00;99.90
14378;DHT22;7272;53.668;9.578;2023-07-16T00:18:29;20.00;99.90
14378;DHT22;7272;53.668;9.578;2023-07-16T00:21:31;20.00;99.90
14378;DHT22;7272;53.668;9.578;2023-07-16T00:24:32;19.90;99.90
14378;DHT22;7272;53.668;9.578;2023-07-16T00:27:34;20.10;99.90
14378;DHT22;7272;53.668;9.578;2023-07-16T00:30:35;20.20;99.90
14378;DHT22;7272;53.668;9.578;2023-07-16T00:33:36;20.20;99.90
14378;DHT22;7272;53.668;9.578;2023-07-16T00:36:37;20.10;99.90
14378;DHT22;7272;53.668;9.578;2023-07-16T00:39:39;20.00;99.90
14378;DHT22;7272;53.668;9.578;2023-07-16T00:42:40;20.00;99.90
14378;DHT22;7272;53.668;9.578;2023-07-16T00:45:42;20.00;99.90
14378;DHT22;7272;53.668;9.578;2023-07-16T00:48:46;20.00;99.90
14378;DHT22;7272;53.668;9.578;2023-07-16T00:51:47;20.00;99.90
14378;DHT22;7272;53.668;9.578;2023-07-16T00:54:49;20.00;99.90
14378;DHT22;7272;53.668;9.578;2023-07-16T00:57:51;19.90;99.90
14378;DHT22;7272;53.668;9.578;2023-07-16T01:00:52;19.80;99.90
14378;DHT22;7272;53.668;9.578;2023-07-16T01:03:53;19.70;99.90
14378;DHT22;7272;53.668;9.578;2023-07-16T01:06:58;19.70;99.90
14378;DHT22;7272;53.668;9.578;2023-07-16T01:10:01;19.70;99.90
14378;DHT22;7272;53.668;9.578;2023-07-16T01:13:03;19.90;99.90
14378;DHT22;7272;53.668;9.578;2023-07-16T01:16:05;19.80;99.90
14378;DHT22;7272;53.668;9.578;2023-07-16T01:19:06;19.70;99.90
14378;DHT22;7272;53.668;9.578;2023-07-16T01:22:34;19.70;99.90
14378;DHT22;7272;53.668;9.578;2023-07-16T01:25:55;19.60;99.90
14378;DHT22;7272;53.668;9.578;2023-07-16T01:29:29;19.70;99.90
14378;DHT22;7272;53.668;9.578;2023-07-16T01:32:32;19.70;99.90
14378;DHT22;7272;53.668;9.578;2023-07-16T01:35:36;19.60;99.90
14378;DHT22;7272;53.668;9.578;2023-07-16T01:38:37;19.60;99.90
14378;DHT22;7272;53.668;9.578;2023-07-16T01:41:38;19.50;99.90
14378;DHT22;7272;53.668;9.578;2023-07-16T01:44:40;19.50;99.90
14378;DHT22;7272;53.668;9.578;2023-07-16T01:47:49;19.50;99.90
14378;DHT22;7272;53.668;9.578;2023-07-16T01:50:53;19.50;99.90
14378;DHT22;7272;53.668;9.578;2023-07-16T01:53:54;19.60;99.90
14378;DHT22;7272;53.668;9.578;2023-07-16T01:56:56;19.50;99.90
14378;DHT22;7272;53.668;9.578;2023-07-16T01:59:57;19.50;99.90
14378;DHT22;7272;53.668;9.578;2023-07-16T02:02:59;19.50;99.90
14378;DHT22;7272;53.668;9.578;2023-07-16T02:06:00;19.50;99.90
14378;DHT22;7272;53.668;9.578;2023-07-16T02:09:01;19.50;99.90
14378;DHT22;7272;53.668;9.578;2023-07-16T02:12:02;19.40;99.90
14378;DHT22;7272;53.668;9.578;2023-07-16T02:15:06;19.60;99.90
14378;DHT22;7272;53.668;9.578;2023-07-16T02:18:10;19.50;99.90
14378;DHT22;7272;53.668;9.578;2023-07-16T02:21:12;19.50;99.90
14378;DHT22;7272;53.668;9.578;2023-07-16T02:24:13;19.40;99.90
14378;DHT22;7272;53.668;9.578;2023-07-16T02:27:14;19.30;99.90
14378;DHT22;7272;53.668;9.578;2023-07-16T02:30:16;19.30;99.90
14378;DHT22;7272;53.668;9.578;2023-07-16T02:33:17;19.30;99.90
14378;DHT22;7272;53.668;9.578;2023-07-16T02:36:19;19.20;99.90
14378;DHT22;7272;53.668;9.578;2023-07-16T02:39:20;19.20;99.90
14378;DHT22;7272;53.668;9.578;2023-07-16T02:42:23;19.20;99.90
14378;DHT22;7272;53.668;9.578;2023-07-16T02:45:26;19.10;99.90
14378;DHT22;7272;53.668;9.578;2023-07-16T02:48:28;19.10;99.90
14378;DHT22;7272;53.668;9.578;2023-07-16T02:51:29;19.10;99.90
14378;DHT22;7272;53.668;9.578;2023-07-16T02:54:30;19.20;99.90
14378;DHT22;7272;53.668;9.578;2023-07-16T02:57:31;19.20;99.90
14378;DHT22;7272;53.668;9.578;2023-07-16T03:00:34;19.20;99.90
14378;DHT22;7272;53.668;9.578;2023-07-16T03:03:35;19.10;99.90
14378;DHT22;7272;53.668;9.578;2023-07-16T03:06:36;19.10;99.90
14378;DHT22;7272;53.668;9.578;2023-07-16T03:09:38;19.10;99.90
14378;DHT22;7272;53.668;9.578;2023-07-16T03:12:39;19.20;99.90
14378;DHT22;7272;53.668;9.578;2023-07-16T03:15:41;19.20;99.90
14378;DHT22;7272;53.668;9.578;2023-07-16T03:18:43;19.10;99.90
14378;DHT22;7272;53.668;9.578;2023-07-16T03:21:44;19.10;99.90
14378;DHT22;7272;53.668;9.578;2023-07-16T03:24:46;19.00;99.90
14378;DHT22;7272;53.668;9.578;2023-07-16T03:27:48;19.00;99.90
14378;DHT22;7272;53.668;9.578;2023-07-16T03:30:50;19.00;99.90
14378;DHT22;7272;53.668;9.578;2023-07-16T03:33:53;19.00;99.90
14378;DHT22;7272;53.668;9.578;2023-07-16T03:36:57;19.00;99.90
14378;DHT22;7272;53.668;9.578;2023-07-16T03:40:12;19.00;99.90
14378;DHT22;7272;53.668;9.578;2023-07-16T03:43:14;18.90;99.90
14378;DHT22;7272;53.668;9.578;2023-07-16T03:46:16;18.90;99.90
14378;DHT22;7272;53.668;9.578;2023-07-16T03:49:18;18.80;99.90
14378;DHT22;7272;53.668;9.578;2023-07-16T03:52:19;18.80;99.90
14378;DHT22;7272;53.668;9.578;2023-07-16T03:55:20;18.90;99.90
14378;DHT22;7272;53.668;9.578;2023-07-16T03:58:22;19.00;99.90
14378;DHT22;7272;53.668;9.578;2023-07-16T04:01:24;18.90;99.90
14378;DHT22;7272;53.668;9.578;2023-07-16T04:04:25;18.90;99.90
14378;DHT22;7272;53.668;9.578;2023-07-16T04:07:26;18.90;99.90
14378;DHT22;7272;53.668;9.578;2023-07-16T04:10:28;18.90;99.90
14378;DHT22;7272;53.668;9.578;2023-07-16T04:13:29;18.90;99.90
14378;DHT22;7272;53.668;9.578;2023-07-16T04:16:31;18.90;99.90
14378;DHT22;7272;53.668;9.578;2023-07-16T04:19:32;19.10;99.90
14378;DHT22;7272;53.668;9.578;2023-07-16T04:22:33;19.10;99.90
14378;DHT22;7272;53.668;9.578;2023-07-16T04:25:34;19.00;99.90
14378;DHT22;7272;53.668;9.578;2023-07-16T04:28:36;19.00;99.90
14378;DHT22;7272;53.668;9.578;2023-07-16T04:31:37;19.00;99.90
14378;DHT22;7272;53.668;9.578;2023-07-16T04:34:38;19.00;99.90
14378;DHT22;7272;53.668;9.578;2023-07-16T04:37:40;19.00;99.90
14378;DHT22;7272;53.668;9.578;2023-07-16T04:40:41;19.20;99.90
14378;DHT22;7272;53.668;9.578;2023-07-16T04:43:43;19.20;99.90
14378;DHT22;7272;53.668;9.578;2023-07-16T04:46:45;19.10;99.90
14378;DHT22;7272;53.668;9.578;2023-07-16T04:49:46;19.10;99.90
14378;DHT22;7272;53.668;9.578;2023-07-16T04:52:47;19.00;99.90
14378;DHT22;7272;53.668;9.578;2023-07-16T04:55:48;19.00;99.90
14378;DHT22;7272;53.668;9.578;2023-07-16T04:58:50;19.00;99.90
14378;DHT22;7272;53.668;9.578;2023-07-16T05:01:52;19.10;99.90
14378;DHT22;7272;53.668;9.578;2023-07-16T05:04:53;19.10;99.90
14378;DHT22;7272;53.668;9.578;2023-07-16T05:07:54;19.10;99.90
14378;DHT22;7272;53.668;9.578;2023-07-16T05:10:55;19.20;99.90
14378;DHT22;7272;53.668;9.578;2023-07-16T05:13:56;19.30;99.90
14378;DHT22;7272;53.668;9.578;2023-07-16T05:16:58;19.40;99.90
14378;DHT22;7272;53.668;9.578;2023-07-16T05:19:59;19.40;99.90
14378;DHT22;7272;53.668;9.578;2023-07-16T05:23:01;19.50;99.90
14378;DHT22;7272;53.668;9.578;2023-07-16T05:26:02;19.40;99.90
14378;DHT22;7272;53.668;9.578;2023-07-16T05:29:03;19.30;99.90
14378;DHT22;7272;53.668;9.578;2023-07-16T05:32:06;19.40;99.90
14378;DHT22;7272;53.668;9.578;2023-07-16T05:35:07;19.40;99.90
14378;DHT22;7272;53.668;9.578;2023-07-16T05:38:09;19.40;99.90
14378;DHT22;7272;53.668;9.578;2023-07-16T05:41:10;19.50;99.90
14378;DHT22;7272;53.668;9.578;2023-07-16T05:44:11;19.60;99.90
14378;DHT22;7272;53.668;9.578;2023-07-16T05:47:13;19.60;99.90
14378;DHT22;7272;53.668;9.578;2023-07-16T05:50:14;19.60;99.90
14378;DHT22;7272;53.668;9.578;2023-07-16T05:53:15;19.60;99.90
14378;DHT22;7272;53.668;9.578;2023-07-16T05:56:16;19.60;99.90
14378;DHT22;7272;53.668;9.578;2023-07-16T05:59:18;19.70;99.90
14378;DHT22;7272;53.668;9.578;2023-07-16T06:02:19;19.70;99.90
14378;DHT22;7272;53.668;9.578;2023-07-16T06:05:21;19.70;99.90
14378;DHT22;7272;53.668;9.578;2023-07-16T06:08:22;19.80;99.90
14378;DHT22;7272;53.668;9.578;2023-07-16T06:11:25;19.90;99.90
14378;DHT22;7272;53.668;9.578;2023-07-16T06:14:26;19.90;99.90
14378;DHT22;7272;53.668;9.578;2023-07-16T06:17:28;20.00;99.90
14378;DHT22;7272;53.668;9.578;2023-07-16T06:20:29;20.00;99.90
14378;DHT22;7272;53.668;9.578;2023-07-16T06:23:30;20.00;99.90
14378;DHT22;7272;53.668;9.578;2023-07-16T06:26:32;20.00;99.90
14378;DHT22;7272;53.668;9.578;2023-07-16T06:29:33;20.00;99.90
14378;DHT22;7272;53.668;9.578;2023-07-16T06:32:35;20.10;99.90
14378;DHT22;7272;53.668;9.578;2023-07-16T06:35:36;20.30;99.90
14378;DHT22;7272;53.668;9.578;2023-07-16T06:38:37;20.30;99.90
14378;DHT22;7272;53.668;9.578;2023-07-16T06:41:38;20.30;99.90
14378;DHT22;7272;53.668;9.578;2023-07-16T06:44:42;20.30;99.90
14378;DHT22;7272;53.668;9.578;2023-07-16T06:47:44;20.30;99.90
14378;DHT22;7272;53.668;9.578;2023-07-16T06:50:45;20.50;99.90
14378;DHT22;7272;53.668;9.578;2023-07-16T06:53:47;20.50;99.90
14378;DHT22;7272;53.668;9.578;2023-07-16T06:56:50;20.50;99.90
14378;DHT22;7272;53.668;9.578;2023-07-16T06:59:51;20.60;99.90
14378;DHT22;7272;53.668;9.578;2023-07-16T07:02:53;20.60;99.90
14378;DHT22;7272;53.668;9.578;2023-07-16T07:05:54;20.70;99.90
14378;DHT22;7272;53.668;9.578;2023-07-16T07:08:55;20.90;99.90
14378;DHT22;7272;53.668;9.578;2023-07-16T07:11:57;21.00;99.90
14378;DHT22;7272;53.668;9.578;2023-07-16T07:14:58;21.00;99.90
14378;DHT22;7272;53.668;9.578;2023-07-16T07:18:00;21.10;99.90
14378;DHT22;7272;53.668;9.578;2023-07-16T07:21:01;21.20;99.90
14378;DHT22;7272;53.668;9.578;2023-07-16T07:24:03;21.20;99.90
14378;DHT22;7272;53.668;9.578;2023-07-16T07:27:05;21.30;99.90
14378;DHT22;7272;53.668;9.578;2023-07-16T07:30:07;21.50;99.90
14378;DHT22;7272;53.668;9.578;2023-07-16T07:33:09;21.50;99.90
14378;DHT22;7272;53.668;9.578;2023-07-16T07:36:10;21.50;99.90
14378;DHT22;7272;53.668;9.578;2023-07-16T07:39:12;21.50;99.90
14378;DHT22;7272;53.668;9.578;2023-07-16T07:42:13;21.60;99.90
14378;DHT22;7272;53.668;9.578;2023-07-16T07:45:15;21.60;99.90
14378;DHT22;7272;53.668;9.578;2023-07-16T07:48:16;21.70;99.90
14378;DHT22;7272;53.668;9.578;2023-07-16T07:51:18;21.70;99.90
14378;DHT22;7272;53.668;9.578;2023-07-16T07:54:19;21.70;99.90
14378;DHT22;7272;53.668;9.578;2023-07-16T07:57:20;21.80;99.90
14378;DHT22;7272;53.668;9.578;2023-07-16T08:00:21;21.80;99.90
14378;DHT22;7272;53.668;9.578;2023-07-16T08:03:23;21.80;99.90
14378;DHT22;7272;53.668;9.578;2023-07-16T08:06:25;21.90;99.90
14378;DHT22;7272;53.668;9.578;2023-07-16T08:09:27;22.10;99.90
14378;DHT22;7272;53.668;9.578;2023-07-16T08:12:28;22.30;99.90
14378;DHT22;7272;53.668;9.578;2023-07-16T08:15:30;22.30;99.90
14378;DHT22;7272;53.668;9.578;2023-07-16T08:18:32;22.50;99.90
14378;DHT22;7272;53.668;9.578;2023-07-16T08:21:33;22.70;99.90
14378;DHT22;7272;53.668;9.578;2023-07-16T08:24:34;22.70;99.90
14378;DHT22;7272;53.668;9.578;2023-07-16T08:27:35;23.00;99.90
14378;DHT22;7272;53.668;9.578;2023-07-16T08:30:37;23.20;99.90
14378;DHT22;7272;53.668;9.578;2023-07-16T08:33:38;23.20;99.90
14378;DHT22;7272;53.668;9.578;2023-07-16T08:36:40;22.90;99.90
14378;DHT22;7272;53.668;9.578;2023-07-16T08:39:41;23.00;99.90
14378;DHT22;7272;53.668;9.578;2023-07-16T08:42:44;23.20;99.90
14378;DHT22;7272;53.668;9.578;2023-07-16T08:45:46;23.60;99.90
14378;DHT22;7272;53.668;9.578;2023-07-16T08:48:50;23.50;99.90
14378;DHT22;7272;53.668;9.578;2023-07-16T08:51:54;23.40;99.90
14378;DHT22;7272;53.668;9.578;2023-07-16T08:54:56;23.30;99.90
14378;DHT22;7272;53.668;9.578;2023-07-16T08:57:58;23.00;99.90
14378;DHT22;7272;53.668;9.578;2023-07-16T09:01:00;23.20;99.90
14378;DHT22;7272;53.668;9.578;2023-07-16T09:04:02;23.20;99.90
14378;DHT22;7272;53.668;9.578;2023-07-16T09:07:04;23.10;99.90
14378;DHT22;7272;53.668;9.578;2023-07-16T09:10:07;23.10;99.90
14378;DHT22;7272;53.668;9.578;2023-07-16T09:13:10;23.50;99.90
14378;DHT22;7272;53.668;9.578;2023-07-16T09:16:11;23.90;99.90
14378;DHT22;7272;53.668;9.578;2023-07-16T09:19:13;24.10;99.90
14378;DHT22;7272;53.668;9.578;2023-07-16T09:22:17;24.00;99.90
14378;DHT22;7272;53.668;9.578;2023-07-16T09:25:18;23.90;99.90
14378;DHT22;7272;53.668;9.578;2023-07-16T09:28:20;24.00;99.90
14378;DHT22;7272;53.668;9.578;2023-07-16T09:31:21;24.10;99.90
14378;DHT22;7272;53.668;9.578;2023-07-16T09:34:23;24.50;99.90
14378;DHT22;7272;53.668;9.578;2023-07-16T09:37:24;25.00;99.90
14378;DHT22;7272;53.668;9.578;2023-07-16T09:40:27;25.30;99.90
14378;DHT22;7272;53.668;9.578;2023-07-16T09:43:28;25.10;99.90
14378;DHT22;7272;53.668;9.578;2023-07-16T09:46:30;25.00;99.90
14378;DHT22;7272;53.668;9.578;2023-07-16T09:49:32;24.60;99.90
14378;DHT22;7272;53.668;9.578;2023-07-16T09:52:33;24.60;99.90
14378;DHT22;7272;53.668;9.578;2023-07-16T09:55:35;24.70;99.90
14378;DHT22;7272;53.668;9.578;2023-07-16T09:58:37;25.00;99.90
14378;DHT22;7272;53.668;9.578;2023-07-16T10:01:38;24.90;99.90
14378;DHT22;7272;53.668;9.578;2023-07-16T10:04:40;24.80;99.90
14378;DHT22;7272;53.668;9.578;2023-07-16T10:07:42;24.70;99.90
14378;DHT22;7272;53.668;9.578;2023-07-16T10:10:44;24.50;99.90
14378;DHT22;7272;53.668;9.578;2023-07-16T10:13:50;24.20;99.90
14378;DHT22;7272;53.668;9.578;2023-07-16T10:16:51;24.00;99.90
14378;DHT22;7272;53.668;9.578;2023-07-16T10:19:57;23.90;99.90
14378;DHT22;7272;53.668;9.578;2023-07-16T10:23:10;23.80;99.90
14378;DHT22;7272;53.668;9.578;2023-07-16T10:26:13;23.90;99.90
14378;DHT22;7272;53.668;9.578;2023-07-16T10:29:15;23.90;99.90
14378;DHT22;7272;53.668;9.578;2023-07-16T10:32:17;23.70;99.90
14378;DHT22;7272;53.668;9.578;2023-07-16T10:35:19;23.90;99.90
14378;DHT22;7272;53.668;9.578;2023-07-16T10:38:20;24.10;99.90
14378;DHT22;7272;53.668;9.578;2023-07-16T10:41:21;24.50;99.90
14378;DHT22;7272;53.668;9.578;2023-07-16T10:44:23;24.90;99.90
14378;DHT22;7272;53.668;9.578;2023-07-16T10:47:29;24.80;99.90
14378;DHT22;7272;53.668;9.578;2023-07-16T10:50:33;25.20;99.90
14378;DHT22;7272;53.668;9.578;2023-07-16T10:53:40;25.30;99.90
14378;DHT22;7272;53.668;9.578;2023-07-16T10:56:42;24.70;99.90
14378;DHT22;7272;53.668;9.578;2023-07-16T10:59:45;24.50;99.90
14378;DHT22;7272;53.668;9.578;2023-07-16T11:02:46;24.40;99.90
14378;DHT22;7272;53.668;9.578;2023-07-16T11:05:48;24.40;99.90
14378;DHT22;7272;53.668;9.578;2023-07-16T11:08:50;24.30;99.90
14378;DHT22;7272;53.668;9.578;2023-07-16T11:11:51;24.70;99.90
14378;DHT22;7272;53.668;9.578;2023-07-16T11:14:53;24.90;99.90
14378;DHT22;7272;53.668;9.578;2023-07-16T11:17:55;25.00;99.90
14378;DHT22;7272;53.668;9.578;2023-07-16T11:20:56;25.10;99.90
14378;DHT22;7272;53.668;9.578;2023-07-16T11:24:07;25.10;99.90
14378;DHT22;7272;53.668;9.578;2023-07-16T11:27:13;25.10;99.90
14378;DHT22;7272;53.668;9.578;2023-07-16T11:30:15;25.20;99.90
14378;DHT22;7272;53.668;9.578;2023-07-16T11:33:16;25.20;99.90
14378;DHT22;7272;53.668;9.578;2023-07-16T11:36:18;25.00;99.90
14378;DHT22;7272;53.668;9.578;2023-07-16T11:39:19;24.70;99.90
14378;DHT22;7272;53.668;9.578;2023-07-16T11:42:23;24.50;99.90
14378;DHT22;7272;53.668;9.578;2023-07-16T11:45:25;24.30;99.90
14378;DHT22;7272;53.668;9.578;2023-07-16T11:48:26;24.10;99.90
14378;DHT22;7272;53.668;9.578;2023-07-16T11:51:28;23.90;99.90
14378;DHT22;7272;53.668;9.578;2023-07-16T11:54:29;23.90;99.90
14378;DHT22;7272;53.668;9.578;2023-07-16T11:57:31;24.00;99.90
14378;DHT22;7272;53.668;9.578;2023-07-16T12:00:32;24.20;99.90
14378;DHT22;7272;53.668;9.578;2023-07-16T12:03:34;24.20;99.90
14378;DHT22;7272;53.668;9.578;2023-07-16T12:06:35;24.40;99.90
14378;DHT22;7272;53.668;9.578;2023-07-16T12:09:37;24.30;99.90
14378;DHT22;7272;53.668;9.578;2023-07-16T12:12:38;24.10;99.90
14378;DHT22;7272;53.668;9.578;2023-07-16T12:15:40;24.10;99.90
14378;DHT22;7272;53.668;9.578;2023-07-16T12:18:41;24.00;99.90
14378;DHT22;7272;53.668;9.578;2023-07-16T12:21:43;24.60;99.90
14378;DHT22;7272;53.668;9.578;2023-07-16T12:24:44;24.90;99.90
14378;DHT22;7272;53.668;9.578;2023-07-16T12:27:46;24.60;99.90
14378;DHT22;7272;53.668;9.578;2023-07-16T12:30:47;24.30;99.90
14378;DHT22;7272;53.668;9.578;2023-07-16T12:33:48;24.30;99.90
14378;DHT22;7272;53.668;9.578;2023-07-16T12:36:50;24.20;99.90
14378;DHT22;7272;53.668;9.578;2023-07-16T12:39:51;24.00;99.90
14378;DHT22;7272;53.668;9.578;2023-07-16T12:42:53;24.00;99.90
14378;DHT22;7272;53.668;9.578;2023-07-16T12:45:54;24.20;99.90
14378;DHT22;7272;53.668;9.578;2023-07-16T12:48:55;24.60;99.90
14378;DHT22;7272;53.668;9.578;2023-07-16T12:51:57;24.70;99.90
14378;DHT22;7272;53.668;9.578;2023-07-16T12:54:58;24.60;99.90
14378;DHT22;7272;53.668;9.578;2023-07-16T12:57:59;24.40;99.90
14378;DHT22;7272;53.668;9.578;2023-07-16T13:01:01;24.20;99.90
14378;DHT22;7272;53.668;9.578;2023-07-16T13:04:02;24.30;99.90
14378;DHT22;7272;53.668;9.578;2023-07-16T13:07:05;24.50;99.90
14378;DHT22;7272;53.668;9.578;2023-07-16T13:10:07;24.90;99.90
14378;DHT22;7272;53.668;9.578;2023-07-16T13:13:08;24.90;99.90
14378;DHT22;7272;53.668;9.578;2023-07-16T13:16:10;25.40;99.90
14378;DHT22;7272;53.668;9.578;2023-07-16T13:19:11;25.20;99.90
14378;DHT22;7272;53.668;9.578;2023-07-16T13:22:13;25.10;99.90
14378;DHT22;7272;53.668;9.578;2023-07-16T13:25:15;24.80;99.90
14378;DHT22;7272;53.668;9.578;2023-07-16T13:28:16;24.50;99.90
14378;DHT22;7272;53.668;9.578;2023-07-16T13:31:17;24.20;99.90
14378;DHT22;7272;53.668;9.578;2023-07-16T13:34:18;24.10;99.90
14378;DHT22;7272;53.668;9.578;2023-07-16T13:37:20;24.10;99.90
14378;DHT22;7272;53.668;9.578;2023-07-16T13:40:21;24.10;99.90
14378;DHT22;7272;53.668;9.578;2023-07-16T13:43:22;24.50;99.90
14378;DHT22;7272;53.668;9.578;2023-07-16T13:46:23;24.60;99.90
14378;DHT22;7272;53.668;9.578;2023-07-16T13:49:25;24.50;99.90
14378;DHT22;7272;53.668;9.578;2023-07-16T13:52:26;24.30;99.90
14378;DHT22;7272;53.668;9.578;2023-07-16T13:55:28;24.30;99.90
14378;DHT22;7272;53.668;9.578;2023-07-16T13:58:29;24.10;99.90
14378;DHT22;7272;53.668;9.578;2023-07-16T14:01:30;23.90;99.90
14378;DHT22;7272;53.668;9.578;2023-07-16T14:04:31;23.70;99.90
14378;DHT22;7272;53.668;9.578;2023-07-16T14:07:33;23.40;99.90
14378;DHT22;7272;53.668;9.578;2023-07-16T14:10:34;23.30;99.90
14378;DHT22;7272;53.668;9.578;2023-07-16T14:13:35;23.50;99.90
14378;DHT22;7272;53.668;9.578;2023-07-16T14:16:36;23.70;99.90
14378;DHT22;7272;53.668;9.578;2023-07-16T14:19:39;23.80;99.90
14378;DHT22;7272;53.668;9.578;2023-07-16T14:22:41;24.10;99.90
14378;DHT22;7272;53.668;9.578;2023-07-16T14:25:42;24.40;99.90
14378;DHT22;7272;53.668;9.578;2023-07-16T14:28:43;24.50;99.90
14378;DHT22;7272;53.668;9.578;2023-07-16T14:31:45;24.60;99.90
14378;DHT22;7272;53.668;9.578;2023-07-16T14:34:46;24.60;99.90
14378;DHT22;7272;53.668;9.578;2023-07-16T14:37:48;24.70;99.90
14378;DHT22;7272;53.668;9.578;2023-07-16T14:40:49;24.90;99.90
14378;DHT22;7272;53.668;9.578;2023-07-16T14:43:51;24.90;99.90
14378;DHT22;7272;53.668;9.578;2023-07-16T14:46:53;24.70;99.90
14378;DHT22;7272;53.668;9.578;2023-07-16T14:49:55;24.70;99.90
14378;DHT22;7272;53.668;9.578;2023-07-16T14:52:57;24.70;99.90
14378;DHT22;7272;53.668;9.578;2023-07-16T14:55:58;24.80;99.90
14378;DHT22;7272;53.668;9.578;2023-07-16T14:58:59;24.80;99.90
14378;DHT22;7272;53.668;9.578;2023-07-16T15:02:00;24.70;99.90
14378;DHT22;7272;53.668;9.578;2023-07-16T15:05:02;24.90;99.90
14378;DHT22;7272;53.668;9.578;2023-07-16T15:08:06;24.80;99.90
14378;DHT22;7272;53.668;9.578;2023-07-16T15:11:07;24.70;99.90
14378;DHT22;7272;53.668;9.578;2023-07-16T15:14:08;24.70;99.90
14378;DHT22;7272;53.668;9.578;2023-07-16T15:17:09;24.60;99.90
14378;DHT22;7272;53.668;9.578;2023-07-16T15:20:11;24.70;99.90
14378;DHT22;7272;53.668;9.578;2023-07-16T15:23:13;24.50;99.90
14378;DHT22;7272;53.668;9.578;2023-07-16T15:26:14;24.70;99.90
14378;DHT22;7272;53.668;9.578;2023-07-16T15:29:15;24.80;99.90
14378;DHT22;7272;53.668;9.578;2023-07-16T15:32:17;24.80;99.90
14378;DHT22;7272;53.668;9.578;2023-07-16T15:35:18;24.70;99.90
14378;DHT22;7272;53.668;9.578;2023-07-16T15:38:20;24.50;99.90
14378;DHT22;7272;53.668;9.578;2023-07-16T15:41:21;24.30;99.90
14378;DHT22;7272;53.668;9.578;2023-07-16T15:44:26;24.10;99.90
14378;DHT22;7272;53.668;9.578;2023-07-16T15:47:27;23.80;99.90
14378;DHT22;7272;53.668;9.578;2023-07-16T15:50:28;23.60;99.90
14378;DHT22;7272;53.668;9.578;2023-07-16T15:53:30;23.30;99.90
14378;DHT22;7272;53.668;9.578;2023-07-16T15:56:31;23.00;99.90
14378;DHT22;7272;53.668;9.578;2023-07-16T15:59:32;23.20;99.90
14378;DHT22;7272;53.668;9.578;2023-07-16T16:02:33;23.40;99.90
14378;DHT22;7272;53.668;9.578;2023-07-16T16:05:36;23.50;99.90
14378;DHT22;7272;53.668;9.578;2023-07-16T16:08:38;23.50;99.90
14378;DHT22;7272;53.668;9.578;2023-07-16T16:11:39;23.70;99.90
14378;DHT22;7272;53.668;9.578;2023-07-16T16:14:40;23.70;99.90
14378;DHT22;7272;53.668;9.578;2023-07-16T16:17:41;23.70;99.90
14378;DHT22;7272;53.668;9.578;2023-07-16T16:20:43;23.70;99.90
14378;DHT22;7272;53.668;9.578;2023-07-16T16:23:45;23.90;99.90
14378;DHT22;7272;53.668;9.578;2023-07-16T16:26:46;23.90;99.90
14378;DHT22;7272;53.668;9.578;2023-07-16T16:29:48;24.10;99.90
14378;DHT22;7272;53.668;9.578;2023-07-16T16:32:49;24.10;99.90
14378;DHT22;7272;53.668;9.578;2023-07-16T16:35:53;24.10;99.90
14378;DHT22;7272;53.668;9.578;2023-07-16T16:38:54;24.10;99.90
14378;DHT22;7272;53.668;9.578;2023-07-16T16:41:56;24.10;99.90
14378;DHT22;7272;53.668;9.578;2023-07-16T16:44:57;24.10;99.90
14378;DHT22;7272;53.668;9.578;2023-07-16T16:48:02;24.20;99.90
14378;DHT22;7272;53.668;9.578;2023-07-16T16:51:04;24.10;99.90
14378;DHT22;7272;53.668;9.578;2023-07-16T16:54:06;24.10;99.90
14378;DHT22;7272;53.668;9.578;2023-07-16T16:57:07;23.90;99.90
14378;DHT22;7272;53.668;9.578;2023-07-16T17:00:10;23.80;99.90
14378;DHT22;7272;53.668;9.578;2023-07-16T17:03:13;23.70;99.90
14378;DHT22;7272;53.668;9.578;2023-07-16T17:06:14;23.60;99.90
14378;DHT22;7272;53.668;9.578;2023-07-16T17:09:16;23.70;99.90
14378;DHT22;7272;53.668;9.578;2023-07-16T17:12:17;23.60;99.90
14378;DHT22;7272;53.668;9.578;2023-07-16T17:15:18;23.50;99.90
14378;DHT22;7272;53.668;9.578;2023-07-16T17:18:19;23.40;99.90
14378;DHT22;7272;53.668;9.578;2023-07-16T17:21:21;23.30;99.90
14378;DHT22;7272;53.668;9.578;2023-07-16T17:24:23;23.40;99.90
14378;DHT22;7272;53.668;9.578;2023-07-16T17:27:24;23.40;99.90
14378;DHT22;7272;53.668;9.578;2023-07-16T17:30:25;23.20;99.90
14378;DHT22;7272;53.668;9.578;2023-07-16T17:33:27;23.10;99.90
14378;DHT22;7272;53.668;9.578;2023-07-16T17:36:28;23.00;99.90
14378;DHT22;7272;53.668;9.578;2023-07-16T17:39:30;23.00;99.90
14378;DHT22;7272;53.668;9.578;2023-07-16T17:42:31;23.10;99.90
14378;DHT22;7272;53.668;9.578;2023-07-16T17:45:32;23.10;99.90
14378;DHT22;7272;53.668;9.578;2023-07-16T17:48:34;23.10;99.90
14378;DHT22;7272;53.668;9.578;2023-07-16T17:51:35;23.20;99.90
14378;DHT22;7272;53.668;9.578;2023-07-16T17:54:37;23.20;99.90
14378;DHT22;7272;53.668;9.578;2023-07-16T17:57:38;23.20;99.90
14378;DHT22;7272;53.668;9.578;2023-07-16T18:00:39;23.30;99.90
14378;DHT22;7272;53.668;9.578;2023-07-16T18:03:40;23.20;99.90
14378;DHT22;7272;53.668;9.578;2023-07-16T18:06:42;23.20;99.90
14378;DHT22;7272;53.668;9.578;2023-07-16T18:09:43;23.20;99.90
14378;DHT22;7272;53.668;9.578;2023-07-16T18:12:45;23.10;99.90
14378;DHT22;7272;53.668;9.578;2023-07-16T18:15:46;23.10;99.90
14378;DHT22;7272;53.668;9.578;2023-07-16T18:18:47;23.00;99.90
14378;DHT22;7272;53.668;9.578;2023-07-16T18:21:48;23.10;99.90
14378;DHT22;7272;53.668;9.578;2023-07-16T18:24:51;23.10;99.90
14378;DHT22;7272;53.668;9.578;2023-07-16T18:27:53;23.00;99.90
14378;DHT22;7272;53.668;9.578;2023-07-16T18:30:55;23.00;99.90
14378;DHT22;7272;53.668;9.578;2023-07-16T18:33:56;22.90;99.90
14378;DHT22;7272;53.668;9.578;2023-07-16T18:36:58;22.90;99.90
14378;DHT22;7272;53.668;9.578;2023-07-16T18:39:59;22.90;99.90
14378;DHT22;7272;53.668;9.578;2023-07-16T18:43:00;22.90;99.90
14378;DHT22;7272;53.668;9.578;2023-07-16T18:46:02;22.90;99.90
14378;DHT22;7272;53.668;9.578;2023-07-16T18:49:03;22.80;99.90
14378;DHT22;7272;53.668;9.578;2023-07-16T18:52:05;22.80;99.90
14378;DHT22;7272;53.668;9.578;2023-07-16T18:55:08;22.70;99.90
14378;DHT22;7272;53.668;9.578;2023-07-16T18:58:09;22.60;99.90
14378;DHT22;7272;53.668;9.578;2023-07-16T19:01:10;22.60;99.90
14378;DHT22;7272;53.668;9.578;2023-07-16T19:04:11;22.70;99.90
14378;DHT22;7272;53.668;9.578;2023-07-16T19:07:13;22.60;99.90
14378;DHT22;7272;53.668;9.578;2023-07-16T19:10:15;22.50;99.90
14378;DHT22;7272;53.668;9.578;2023-07-16T19:13:16;22.40;99.90
14378;DHT22;7272;53.668;9.578;2023-07-16T19:16:17;22.30;99.90
14378;DHT22;7272;53.668;9.578;2023-07-16T19:19:19;22.30;99.90
14378;DHT22;7272;53.668;9.578;2023-07-16T19:22:21;22.10;99.90
14378;DHT22;7272;53.668;9.578;2023-07-16T19:25:23;22.10;99.90